Time;durP1;ratioP1;P1;durP2;ratioP2;P2;SDS_P1;SDS_P2;PMS_P1;PMS_P2;Temp;Humidity;BMP_temperature;BMP_pressure;BME280_temperature;BME280_humidity;BME280_pressure;Samples;Min_cycle;Max_cycle;Signal;HPM_P1;HPM_P2
2021/11/08 00:00:08;;;;;;;4.30;3.20;;;6.60;99.90;;;;;;5034795;28;20484;-51
2021/11/08 00:02:37;;;;;;;4.70;3.20;;;6.60;99.90;;;;;;5038450;28;20455;-50
2021/11/08 00:05:05;;;;;;;4.20;3.37;;;6.50;99.90;;;;;;5031702;28;20996;-51
2021/11/08 00:07:32;;;;;;;4.37;2.73;;;6.60;99.90;;;;;;5031562;28;21017;-51
2021/11/08 00:10:00;;;;;;;2.87;2.57;;;6.60;99.90;;;;;;5031790;28;21089;-51
2021/11/08 00:12:27;;;;;;;2.63;2.43;;;6.60;99.90;;;;;;5031125;28;20452;-51
2021/11/08 00:14:57;;;;;;;3.23;2.70;;;6.70;99.90;;;;;;5039177;28;20453;-52
2021/11/08 00:17:40;;;;;;;5.13;3.50;;;6.70;99.90;;;;;;5032175;28;20982;-53
2021/11/08 00:20:11;;;;;;;6.87;4.27;;;6.60;99.90;;;;;;5019362;28;20498;-51
2021/11/08 00:22:39;;;;;;;5.50;3.90;;;6.50;99.90;;;;;;5039039;28;20463;-51
2021/11/08 00:25:08;;;;;;;5.63;4.37;;;6.40;99.90;;;;;;5037853;28;20449;-51
2021/11/08 00:27:36;;;;;;;4.60;3.80;;;6.40;99.90;;;;;;5067859;22;20547;-53
2021/11/08 00:30:04;;;;;;;5.60;4.27;;;6.50;99.90;;;;;;5090561;28;20439;-56
2021/11/08 00:32:31;;;;;;;6.53;3.90;;;6.50;99.90;;;;;;5081672;28;20526;-55
2021/11/08 00:34:59;;;;;;;4.73;3.33;;;6.40;99.90;;;;;;5079124;28;20500;-56
2021/11/08 00:37:27;;;;;;;3.50;2.87;;;6.30;99.90;;;;;;5096021;28;20943;-55
2021/11/08 00:39:54;;;;;;;4.07;3.30;;;6.30;99.90;;;;;;5118707;28;20701;-56
2021/11/08 00:42:22;;;;;;;5.83;3.27;;;6.20;99.90;;;;;;5103441;27;20502;-55
2021/11/08 00:44:49;;;;;;;7.53;3.63;;;6.20;99.90;;;;;;5101698;28;20976;-55
2021/11/08 00:47:16;;;;;;;4.30;3.57;;;6.10;99.90;;;;;;5104015;28;20450;-55
2021/11/08 00:49:43;;;;;;;4.50;3.43;;;6.10;99.90;;;;;;5098363;28;20535;-55
2021/11/08 00:52:11;;;;;;;5.50;4.00;;;6.10;99.90;;;;;;5105146;28;20499;-55
2021/11/08 00:54:40;;;;;;;6.57;4.17;;;6.10;99.90;;;;;;5117091;27;20454;-54
2021/11/08 00:57:12;;;;;;;4.33;3.60;;;6.10;99.90;;;;;;5110356;28;20449;-55
2021/11/08 00:59:39;;;;;;;7.23;4.63;;;6.20;99.90;;;;;;5116658;28;20473;-55
2021/11/08 01:02:07;;;;;;;9.33;5.70;;;6.10;99.90;;;;;;5111670;28;20447;-54
2021/11/08 01:04:34;;;;;;;6.83;5.20;;;6.20;99.90;;;;;;5118514;28;20436;-56
2021/11/08 01:07:02;;;;;;;10.63;5.57;;;6.00;99.90;;;;;;5118424;28;20444;-55
2021/11/08 01:09:30;;;;;;;5.90;5.23;;;6.10;99.90;;;;;;5118420;27;20495;-56
2021/11/08 01:11:58;;;;;;;8.70;6.10;;;6.10;99.90;;;;;;5113270;27;20494;-55
2021/11/08 01:14:26;;;;;;;10.73;6.97;;;5.90;99.90;;;;;;5097930;28;21100;-55
2021/11/08 01:16:58;;;;;;;7.90;6.10;;;6.00;99.90;;;;;;5098156;28;20446;-55
2021/11/08 01:19:29;;;;;;;10.60;6.73;;;6.00;99.90;;;;;;5104749;28;20529;-55
2021/11/08 01:22:04;;;;;;;12.77;6.40;;;5.90;99.90;;;;;;5117707;28;20453;-55
2021/11/08 01:24:32;;;;;;;9.53;6.60;;;5.80;99.90;;;;;;5117516;28;20455;-54
2021/11/08 01:27:02;;;;;;;10.33;6.83;;;5.90;99.90;;;;;;5118448;28;20446;-55
2021/11/08 01:29:31;;;;;;;8.97;7.00;;;5.90;99.90;;;;;;5118074;28;20859;-55
2021/11/08 01:32:00;;;;;;;9.37;7.00;;;5.80;99.90;;;;;;5113670;28;20445;-54
2021/11/08 01:34:29;;;;;;;14.60;7.80;;;5.70;99.90;;;;;;5107070;28;20488;-55
2021/11/08 01:36:58;;;;;;;8.63;6.77;;;5.70;99.90;;;;;;5094952;28;20458;-55
2021/11/08 01:39:30;;;;;;;9.93;6.87;;;5.70;99.90;;;;;;5094555;28;20481;-55
2021/11/08 01:41:57;;;;;;;10.90;6.90;;;5.60;99.90;;;;;;5094499;28;20457;-54
2021/11/08 01:44:28;;;;;;;9.07;7.23;;;5.70;99.90;;;;;;5106690;28;20445;-54
2021/11/08 01:46:56;;;;;;;11.27;7.20;;;5.60;99.90;;;;;;5115175;28;20449;-55
2021/11/08 01:49:23;;;;;;;9.10;6.80;;;5.50;99.90;;;;;;5096025;28;20485;-55
2021/11/08 01:51:50;;;;;;;10.00;6.60;;;5.50;99.90;;;;;;5111199;28;20449;-55
2021/11/08 01:54:17;;;;;;;10.70;7.27;;;5.50;99.90;;;;;;5113838;28;20453;-55
2021/11/08 01:56:45;;;;;;;9.57;7.60;;;5.40;99.90;;;;;;5101728;28;20874;-55
2021/11/08 01:59:13;;;;;;;14.00;7.90;;;5.40;99.90;;;;;;5094086;28;20466;-55
2021/11/08 02:01:41;;;;;;;17.53;9.00;;;5.30;99.90;;;;;;5094155;28;20537;-55
2021/11/08 02:04:08;;;;;;;10.97;7.40;;;5.40;99.90;;;;;;5094030;28;20476;-55
2021/11/08 02:06:36;;;;;;;10.60;7.80;;;5.30;99.90;;;;;;5096398;28;20442;-54
2021/11/08 02:09:03;;;;;;;12.20;7.73;;;5.40;99.90;;;;;;5094112;28;20859;-55
2021/11/08 02:11:32;;;;;;;11.23;7.63;;;5.30;99.90;;;;;;5100162;28;20876;-55
2021/11/08 02:13:59;;;;;;;12.47;8.10;;;5.30;99.90;;;;;;5094446;28;20450;-55
2021/11/08 02:16:26;;;;;;;9.70;7.50;;;5.30;99.90;;;;;;5093901;28;20507;-55
2021/11/08 02:18:55;;;;;;;12.73;8.53;;;5.40;99.90;;;;;;5093774;28;20464;-55
2021/11/08 02:21:25;;;;;;;11.30;8.30;;;5.40;99.90;;;;;;5094740;28;20461;-56
2021/11/08 02:23:52;;;;;;;11.23;8.37;;;5.50;99.90;;;;;;5098647;28;20486;-53
2021/11/08 02:26:19;;;;;;;11.20;7.40;;;5.50;99.90;;;;;;5109951;28;20454;-55
2021/11/08 02:28:48;;;;;;;11.83;8.07;;;5.50;99.90;;;;;;5093411;28;20550;-56
2021/11/08 02:31:17;;;;;;;15.83;8.80;;;5.40;99.90;;;;;;5094676;28;20536;-55
2021/11/08 02:33:44;;;;;;;11.80;8.37;;;5.40;99.90;;;;;;5093502;28;20496;-56
2021/11/08 02:36:12;;;;;;;11.00;7.83;;;5.40;99.90;;;;;;5093589;28;20534;-55
2021/11/08 02:38:44;;;;;;;11.23;7.73;;;5.40;99.90;;;;;;5093568;28;20458;-55
2021/11/08 02:41:12;;;;;;;12.30;8.80;;;5.40;99.90;;;;;;5097127;28;20838;-55
2021/11/08 02:43:39;;;;;;;11.03;8.30;;;5.50;99.90;;;;;;5092537;28;20454;-55
2021/11/08 02:46:09;;;;;;;17.23;9.00;;;5.60;99.90;;;;;;5093431;28;20450;-55
2021/11/08 02:48:41;;;;;;;12.10;8.17;;;5.60;99.90;;;;;;5093059;28;20477;-55
2021/11/08 02:51:12;;;;;;;10.63;7.30;;;5.60;99.90;;;;;;5095699;28;20449;-55
2021/11/08 02:53:43;;;;;;;12.13;7.60;;;5.60;99.90;;;;;;5113836;28;20900;-55
2021/11/08 02:56:11;;;;;;;13.27;8.10;;;5.70;99.90;;;;;;5113371;28;20469;-55
2021/11/08 02:58:42;;;;;;;13.13;7.70;;;5.50;99.90;;;;;;5113396;28;20467;-54
2021/11/08 03:01:10;;;;;;;10.63;7.17;;;5.40;99.90;;;;;;5113313;28;20533;-55
2021/11/08 03:03:40;;;;;;;11.97;7.53;;;5.40;99.90;;;;;;5102112;28;20442;-55
2021/11/08 03:06:14;;;;;;;12.57;7.37;;;5.50;99.90;;;;;;5101292;28;20500;-54
2021/11/08 03:08:43;;;;;;;11.57;7.40;;;5.60;99.90;;;;;;5096699;28;20982;-54
2021/11/08 03:11:10;;;;;;;11.07;8.07;;;5.60;99.90;;;;;;5113164;28;20449;-54
2021/11/08 03:13:39;;;;;;;22.40;8.60;;;5.50;99.90;;;;;;5104026;28;20940;-55
2021/11/08 03:16:09;;;;;;;13.07;9.17;;;5.50;99.90;;;;;;5112477;28;20950;-54
2021/11/08 03:18:40;;;;;;;15.77;10.03;;;5.30;99.90;;;;;;5113226;28;20465;-54
2021/11/08 03:21:15;;;;;;;13.80;10.17;;;5.30;99.90;;;;;;5102109;28;20496;-56
2021/11/08 03:23:45;;;;;;;12.50;8.90;;;5.20;99.90;;;;;;5092652;28;20446;-55
2021/11/08 03:26:25;;;;;;;13.83;10.30;;;5.20;99.90;;;;;;5092657;28;20461;-54
2021/11/08 03:28:52;;;;;;;11.50;8.67;;;5.30;99.90;;;;;;5092926;28;20490;-55
2021/11/08 03:31:19;;;;;;;12.27;9.50;;;5.20;99.90;;;;;;5110653;28;20449;-54
2021/11/08 03:33:48;;;;;;;12.83;9.43;;;5.10;99.90;;;;;;5112915;28;20449;-54
2021/11/08 03:36:16;;;;;;;13.67;10.40;;;5.00;99.90;;;;;;5113083;28;20830;-54
2021/11/08 03:38:44;;;;;;;14.60;10.10;;;5.00;99.90;;;;;;5112738;28;20465;-55
2021/11/08 03:41:12;;;;;;;16.00;10.57;;;5.10;99.90;;;;;;5107684;28;20513;-55
2021/11/08 03:43:40;;;;;;;14.27;9.47;;;5.20;99.90;;;;;;5092755;28;20458;-54
2021/11/08 03:46:07;;;;;;;13.50;9.40;;;5.10;99.90;;;;;;5105622;28;20510;-54
2021/11/08 03:48:34;;;;;;;13.97;9.80;;;5.20;99.90;;;;;;5106480;28;20499;-55
2021/11/08 03:51:01;;;;;;;15.30;9.13;;;5.20;99.90;;;;;;5105184;28;20454;-54
2021/11/08 03:53:28;;;;;;;12.93;9.50;;;5.20;99.90;;;;;;5098015;28;20503;-55
2021/11/08 03:55:57;;;;;;;12.83;8.70;;;5.20;99.90;;;;;;5097213;28;20450;-54
2021/11/08 03:58:24;;;;;;;11.57;8.20;;;5.30;99.90;;;;;;5109366;28;20462;-55
2021/11/08 04:00:52;;;;;;;11.60;9.00;;;5.20;99.90;;;;;;5097770;28;20450;-54
2021/11/08 04:03:19;;;;;;;13.40;8.70;;;5.20;99.90;;;;;;5104865;28;20484;-54
2021/11/08 04:05:46;;;;;;;13.10;8.20;;;5.20;99.90;;;;;;5111690;28;20445;-56
2021/11/08 04:08:17;;;;;;;10.83;7.10;;;5.30;99.90;;;;;;5108991;28;20898;-54
2021/11/08 04:10:47;;;;;;;11.93;6.77;;;5.20;99.90;;;;;;5097288;28;20830;-55
2021/11/08 04:13:15;;;;;;;14.00;5.87;;;5.20;99.90;;;;;;5103679;28;20905;-55
2021/11/08 04:15:45;;;;;;;7.80;4.97;;;5.20;99.90;;;;;;5100069;28;20437;-54
2021/11/08 04:18:18;;;;;;;5.20;3.93;;;5.20;99.90;;;;;;5103116;28;20478;-55
2021/11/08 04:20:46;;;;;;;6.37;3.50;;;5.10;99.90;;;;;;5094874;28;20478;-55
2021/11/08 04:23:15;;;;;;;3.40;3.10;;;4.90;99.90;;;;;;5105517;28;20449;-54
2021/11/08 04:25:43;;;;;;;6.33;3.60;;;5.00;99.90;;;;;;5109984;28;20456;-55
2021/11/08 04:28:10;;;;;;;4.17;3.40;;;5.00;99.90;;;;;;5108980;28;20483;-54
2021/11/08 04:30:42;;;;;;;5.43;2.87;;;4.80;99.90;;;;;;5101368;28;20647;-54
2021/11/08 04:33:17;;;;;;;4.40;2.80;;;4.80;99.90;;;;;;5101964;28;20445;-55
2021/11/08 04:35:54;;;;;;;4.97;3.23;;;4.90;99.90;;;;;;5110879;28;20449;-55
2021/11/08 04:38:32;;;;;;;4.97;3.47;;;4.80;99.90;;;;;;5091855;28;21006;-55
2021/11/08 04:43:59;;;;;;;5.80;4.13;;;4.60;99.90;;;;;;5091281;28;20529;-55
2021/11/08 04:46:46;;;;;;;6.10;4.43;;;4.70;99.90;;;;;;5091773;28;20503;-54
2021/11/08 04:49:22;;;;;;;4.93;3.93;;;4.80;99.90;;;;;;5091675;28;20485;-54
2021/11/08 04:51:59;;;;;;;6.50;4.40;;;4.80;99.90;;;;;;5091472;28;20502;-54
2021/11/08 04:54:33;;;;;;;6.43;5.10;;;4.70;99.90;;;;;;5102988;28;20471;-55
2021/11/08 04:57:23;;;;;;;6.30;4.40;;;4.80;99.90;;;;;;5109929;28;20456;-54
2021/11/08 05:22:20;;;;;;;6.27;4.87;;;4.70;99.90;;;;;;5107017;28;20439;-55
2021/11/08 05:27:55;;;;;;;10.50;5.07;;;4.70;99.90;;;;;;5083216;28;20542;-55
2021/11/08 05:30:22;;;;;;;6.37;4.67;;;4.80;99.90;;;;;;5107845;28;20484;-55
2021/11/08 05:32:50;;;;;;;10.43;5.40;;;4.80;99.90;;;;;;5113920;28;20536;-55
2021/11/08 05:35:20;;;;;;;8.07;5.27;;;4.80;99.90;;;;;;5115316;28;20452;-54
2021/11/08 05:37:48;;;;;;;9.73;6.20;;;4.80;99.90;;;;;;5104740;28;20538;-54
2021/11/08 05:40:20;;;;;;;6.50;5.40;;;4.90;99.90;;;;;;5097489;28;20487;-54
2021/11/08 05:42:48;;;;;;;9.67;5.80;;;4.80;99.90;;;;;;5113051;28;21053;-54
2021/11/08 05:45:17;;;;;;;6.77;5.47;;;4.90;99.90;;;;;;5101082;28;20445;-54
2021/11/08 05:47:45;;;;;;;7.33;5.70;;;4.90;99.90;;;;;;5101194;28;20484;-54
2021/11/08 05:50:16;;;;;;;8.63;5.57;;;4.80;99.90;;;;;;5101550;28;20480;-55
2021/11/08 05:52:48;;;;;;;9.70;5.83;;;4.80;99.90;;;;;;5114964;28;20444;-55
2021/11/08 05:55:15;;;;;;;8.93;5.90;;;4.70;99.90;;;;;;5114948;28;20457;-55
2021/11/08 05:57:46;;;;;;;8.53;6.10;;;4.70;99.90;;;;;;5109199;28;20470;-54
2021/11/08 06:49:55;;;;;;;8.30;5.90;;;4.60;99.90;;;;;;5049342;28;20527;-48
2021/11/08 06:52:24;;;;;;;8.40;5.43;;;4.50;99.90;;;;;;5051952;28;20462;-49
2021/11/08 06:54:51;;;;;;;7.70;5.57;;;4.50;99.90;;;;;;5051923;28;20455;-49
2021/11/08 06:57:20;;;;;;;9.23;5.93;;;4.50;99.90;;;;;;5049437;28;20458;-49
2021/11/08 06:59:49;;;;;;;6.60;5.30;;;4.50;99.90;;;;;;5051998;28;20471;-48
2021/11/08 07:02:19;;;;;;;10.37;5.57;;;4.60;99.90;;;;;;5044524;28;20454;-49
2021/11/08 07:04:46;;;;;;;6.13;5.00;;;4.60;99.90;;;;;;5049354;28;20444;-49
2021/11/08 07:07:14;;;;;;;9.63;6.10;;;4.70;99.90;;;;;;5041622;28;20448;-49
2021/11/08 07:09:42;;;;;;;8.20;6.87;;;4.70;99.90;;;;;;5032674;28;20492;-48
2021/11/08 07:12:11;;;;;;;8.00;6.90;;;4.90;99.90;;;;;;5039237;28;20502;-49
2021/11/08 07:14:40;;;;;;;6.83;5.10;;;4.90;99.90;;;;;;5052197;28;20455;-49
2021/11/08 07:17:08;;;;;;;8.17;5.80;;;5.00;99.90;;;;;;5051768;28;20478;-49
2021/11/08 07:19:36;;;;;;;9.20;4.93;;;5.10;99.90;;;;;;5056147;28;20479;-48
2021/11/08 07:22:04;;;;;;;7.60;5.70;;;5.10;99.90;;;;;;5052244;28;20448;-49
2021/11/08 07:24:31;;;;;;;7.23;5.07;;;5.00;99.90;;;;;;5052171;28;20451;-49
2021/11/08 07:27:01;;;;;;;8.00;5.57;;;5.10;99.90;;;;;;5050690;28;20491;-49
2021/11/08 07:29:29;;;;;;;9.47;6.30;;;5.00;99.90;;;;;;5041947;28;20455;-51
2021/11/08 07:31:58;;;;;;;11.27;5.50;;;5.10;99.90;;;;;;5048628;28;20448;-52
2021/11/08 07:34:25;;;;;;;6.33;5.20;;;5.00;99.90;;;;;;5050331;28;20567;-50
2021/11/08 07:36:53;;;;;;;7.50;5.10;;;5.00;99.90;;;;;;5046412;28;20464;-50
2021/11/08 07:39:20;;;;;;;9.87;5.43;;;5.00;99.90;;;;;;5046853;28;20587;-51
2021/11/08 07:41:48;;;;;;;6.70;5.30;;;5.00;99.90;;;;;;5041318;28;20467;-50
2021/11/08 07:44:15;;;;;;;6.63;4.70;;;5.10;99.90;;;;;;5042875;28;20466;-50
2021/11/08 07:46:43;;;;;;;7.47;5.03;;;5.30;99.90;;;;;;5041031;28;20468;-50
2021/11/08 07:49:11;;;;;;;10.20;5.33;;;5.50;99.90;;;;;;5044599;28;20491;-52
2021/11/08 07:51:39;;;;;;;7.63;5.23;;;5.50;99.90;;;;;;5043828;28;20486;-51
2021/11/08 07:54:06;;;;;;;8.00;4.20;;;5.50;99.90;;;;;;5045350;28;20463;-51
2021/11/08 07:56:33;;;;;;;8.00;5.07;;;5.60;99.90;;;;;;5042413;28;20459;-54
2021/11/08 07:59:00;;;;;;;7.40;4.47;;;5.60;99.90;;;;;;5040828;28;20992;-50
2021/11/08 08:01:27;;;;;;;6.37;4.50;;;5.60;99.90;;;;;;5040733;28;20464;-51
2021/11/08 08:03:54;;;;;;;6.60;4.73;;;5.70;99.90;;;;;;5040279;28;21046;-50
2021/11/08 08:06:23;;;;;;;6.57;4.60;;;5.80;99.90;;;;;;5041349;28;20538;-51
2021/11/08 08:08:51;;;;;;;6.77;4.47;;;5.90;99.90;;;;;;5040533;28;20521;-50
2021/11/08 08:11:19;;;;;;;5.40;4.00;;;5.90;99.90;;;;;;5042472;28;20495;-51
2021/11/08 08:13:47;;;;;;;5.07;3.70;;;6.00;99.90;;;;;;5051053;28;20448;-51
2021/11/08 08:16:17;;;;;;;7.07;4.00;;;6.10;99.90;;;;;;5050749;28;20456;-50
2021/11/08 08:18:45;;;;;;;5.23;3.90;;;6.10;99.90;;;;;;5041122;28;20479;-51
2021/11/08 08:21:13;;;;;;;5.23;3.50;;;6.10;99.90;;;;;;5042739;28;21023;-50
2021/11/08 08:23:42;;;;;;;5.30;3.80;;;6.30;99.90;;;;;;5042193;28;20469;-53
2021/11/08 08:26:11;;;;;;;5.23;3.97;;;6.50;99.90;;;;;;5040169;28;20476;-51
2021/11/08 08:28:38;;;;;;;6.60;4.03;;;6.60;99.90;;;;;;5040913;28;20463;-51
2021/11/08 08:31:06;;;;;;;5.90;4.07;;;6.70;99.90;;;;;;5041362;28;21058;-52
2021/11/08 08:33:34;;;;;;;5.40;3.97;;;6.80;99.90;;;;;;5043458;28;20516;-51
2021/11/08 08:36:01;;;;;;;8.87;4.03;;;6.90;99.90;;;;;;5039951;28;20552;-52
2021/11/08 08:38:28;;;;;;;6.43;4.57;;;6.90;99.90;;;;;;5040412;28;20530;-51
2021/11/08 08:40:57;;;;;;;3.40;3.07;;;7.00;99.90;;;;;;5042122;28;20562;-52
2021/11/08 08:43:28;;;;;;;4.90;3.37;;;7.30;99.90;;;;;;5045990;28;21017;-51
2021/11/08 08:45:56;;;;;;;3.67;3.30;;;7.20;99.90;;;;;;5044507;28;20467;-54
2021/11/08 08:48:24;;;;;;;5.83;3.60;;;7.20;99.90;;;;;;5044546;28;20551;-52
2021/11/08 08:50:51;;;;;;;5.67;3.80;;;7.30;99.90;;;;;;5045631;28;20488;-53
2021/11/08 08:53:19;;;;;;;8.73;4.80;;;7.40;99.90;;;;;;5045547;28;20531;-51
2021/11/08 08:55:46;;;;;;;4.67;3.90;;;7.50;99.90;;;;;;5045303;28;20469;-51
2021/11/08 08:58:15;;;;;;;5.10;3.50;;;7.40;99.90;;;;;;5043333;28;20459;-52
2021/11/08 09:00:47;;;;;;;6.20;3.60;;;7.50;99.90;;;;;;5045155;28;20533;-51
2021/11/08 09:03:15;;;;;;;4.87;3.60;;;7.60;99.90;;;;;;5049445;28;20464;-51
2021/11/08 09:05:42;;;;;;;6.57;3.30;;;7.70;99.90;;;;;;5046571;28;20513;-49
2021/11/08 09:08:09;;;;;;;6.50;3.57;;;7.70;99.90;;;;;;5052229;28;20606;-51
2021/11/08 09:10:37;;;;;;;6.80;3.60;;;7.70;99.90;;;;;;5053535;28;20663;-51
2021/11/08 09:13:05;;;;;;;6.10;3.90;;;7.80;99.90;;;;;;5052841;28;20459;-53
2021/11/08 09:15:36;;;;;;;4.30;3.80;;;7.80;99.90;;;;;;5054015;28;20467;-52
2021/11/08 09:18:05;;;;;;;4.60;3.40;;;7.70;99.90;;;;;;5054039;28;20501;-52
2021/11/08 09:20:35;;;;;;;7.10;3.70;;;7.80;99.90;;;;;;5052361;28;20483;-52
2021/11/08 09:23:03;;;;;;;5.70;3.70;;;7.80;99.90;;;;;;5053072;28;20488;-52
2021/11/08 09:25:31;;;;;;;4.20;3.63;;;7.80;99.90;;;;;;5051021;28;20531;-52
2021/11/08 09:28:00;;;;;;;3.63;3.20;;;7.90;99.90;;;;;;5051398;28;20464;-51
2021/11/08 09:30:31;;;;;;;4.30;3.23;;;8.10;99.90;;;;;;5052931;28;20491;-51
2021/11/08 09:32:59;;;;;;;4.87;3.50;;;8.20;99.90;;;;;;5047394;28;20464;-50
2021/11/08 09:35:31;;;;;;;3.10;2.80;;;8.20;99.90;;;;;;5052222;28;20542;-51
2021/11/08 09:37:59;;;;;;;6.03;3.23;;;8.30;99.90;;;;;;5051513;28;20463;-52
2021/11/08 09:40:26;;;;;;;4.63;3.40;;;8.30;99.90;;;;;;5052109;28;20479;-51
2021/11/08 09:42:55;;;;;;;4.80;3.77;;;8.30;99.90;;;;;;5051136;28;20471;-51
2021/11/08 09:45:22;;;;;;;6.90;3.50;;;8.30;99.90;;;;;;5053810;28;20538;-51
2021/11/08 09:47:50;;;;;;;4.67;3.57;;;8.40;99.90;;;;;;5051398;28;20463;-51
2021/11/08 09:50:20;;;;;;;3.90;3.20;;;8.50;99.90;;;;;;5053360;28;20532;-52
2021/11/08 09:52:49;;;;;;;5.80;3.30;;;8.40;99.90;;;;;;5050616;28;20464;-51
2021/11/08 09:55:19;;;;;;;3.80;3.20;;;8.50;99.90;;;;;;5053791;28;20455;-52
2021/11/08 09:57:47;;;;;;;4.23;3.10;;;8.70;99.90;;;;;;5050832;28;20512;-51
2021/11/08 10:00:22;;;;;;;4.80;3.50;;;8.80;99.90;;;;;;5045118;28;20486;-51
2021/11/08 10:02:55;;;;;;;5.57;3.27;;;8.60;99.90;;;;;;5051414;28;20981;-51
2021/11/08 10:05:27;;;;;;;4.60;3.13;;;8.70;99.90;;;;;;5051469;28;20463;-52
2021/11/08 10:07:54;;;;;;;4.13;3.37;;;8.90;99.90;;;;;;5052882;28;20989;-51
2021/11/08 10:10:21;;;;;;;4.33;3.30;;;8.80;99.90;;;;;;5053169;28;20483;-52
2021/11/08 10:12:50;;;;;;;3.30;2.97;;;8.90;99.90;;;;;;5053049;28;20450;-51
2021/11/08 10:15:20;;;;;;;4.80;3.33;;;9.00;99.90;;;;;;5053077;28;20454;-53
2021/11/08 10:17:47;;;;;;;5.47;3.13;;;9.10;99.90;;;;;;5053475;28;20540;-51
2021/11/08 10:20:30;;;;;;;5.70;3.67;;;9.20;99.90;;;;;;5052300;28;20477;-51
2021/11/08 10:22:58;;;;;;;3.03;2.70;;;9.20;99.90;;;;;;5053732;28;20463;-52
2021/11/08 10:25:26;;;;;;;3.53;3.00;;;9.30;99.90;;;;;;5053183;28;20455;-51
2021/11/08 10:27:53;;;;;;;4.27;3.30;;;9.20;99.90;;;;;;5052947;28;20501;-51
2021/11/08 10:30:27;;;;;;;3.27;2.90;;;9.20;99.90;;;;;;5052667;28;21005;-51
2021/11/08 10:33:22;;;;;;;5.20;3.30;;;9.30;99.90;;;;;;5052404;28;20852;-51
2021/11/08 10:35:53;;;;;;;4.27;3.17;;;9.50;99.90;;;;;;5006907;28;20448;-51
2021/11/08 10:38:23;;;;;;;5.90;3.43;;;9.70;99.90;;;;;;5052026;28;20520;-52
2021/11/08 10:40:54;;;;;;;3.50;3.07;;;9.70;99.90;;;;;;5052574;28;20470;-50
2021/11/08 10:43:27;;;;;;;3.63;2.83;;;9.70;99.90;;;;;;5052972;28;20453;-50
2021/11/08 10:45:57;;;;;;;3.50;2.83;;;9.80;99.90;;;;;;5052398;28;20501;-50
2021/11/08 10:48:28;;;;;;;3.37;2.97;;;9.90;99.90;;;;;;5052460;28;20462;-50
2021/11/08 10:50:58;;;;;;;4.40;3.10;;;10.10;99.90;;;;;;5052658;28;20540;-50
2021/11/08 10:53:25;;;;;;;4.43;2.90;;;10.20;99.90;;;;;;5052975;28;20502;-51
2021/11/08 10:55:55;;;;;;;4.03;3.10;;;10.10;99.90;;;;;;5052591;28;20821;-51
2021/11/08 10:58:26;;;;;;;3.20;2.83;;;10.00;99.90;;;;;;5052268;28;20547;-50
2021/11/08 11:00:57;;;;;;;4.13;3.30;;;10.10;99.90;;;;;;5052101;28;20496;-50
2021/11/08 11:03:26;;;;;;;3.30;2.57;;;9.90;99.90;;;;;;5051807;28;20874;-50
2021/11/08 11:06:01;;;;;;;3.50;2.93;;;10.10;99.90;;;;;;5051422;28;20937;-50
2021/11/08 11:08:29;;;;;;;5.63;2.97;;;10.20;99.90;;;;;;5052398;28;20447;-50
2021/11/08 11:10:59;;;;;;;4.07;3.60;;;10.30;99.90;;;;;;5051179;28;20499;-51
2021/11/08 11:13:27;;;;;;;3.63;2.70;;;10.40;99.90;;;;;;5052500;28;20540;-50
2021/11/08 11:16:00;;;;;;;5.73;3.10;;;10.40;99.90;;;;;;5052126;28;20456;-51
2021/11/08 11:18:33;;;;;;;6.27;3.70;;;10.50;99.90;;;;;;5052437;28;20505;-51
2021/11/08 11:21:18;;;;;;;4.47;2.77;;;10.90;99.90;;;;;;5055427;28;21030;-51
2021/11/08 11:23:47;;;;;;;2.90;2.70;;;11.20;99.90;;;;;;5052446;28;20450;-51
2021/11/08 11:26:15;;;;;;;5.43;2.93;;;11.60;99.90;;;;;;5051581;28;20517;-53
2021/11/08 11:28:45;;;;;;;5.53;3.50;;;11.70;99.90;;;;;;5052385;28;20448;-52
2021/11/08 11:31:14;;;;;;;4.10;3.27;;;11.70;99.90;;;;;;5051573;28;20483;-52
2021/11/08 11:33:41;;;;;;;4.90;2.97;;;11.50;99.90;;;;;;5052057;28;20444;-53
2021/11/08 11:36:12;;;;;;;4.53;3.40;;;11.60;99.90;;;;;;5052142;28;20452;-51
2021/11/08 11:38:44;;;;;;;4.40;3.50;;;11.50;99.90;;;;;;5052040;28;20451;-52
2021/11/08 11:41:14;;;;;;;6.40;3.90;;;11.50;99.90;;;;;;5051706;28;20443;-52
2021/11/08 11:43:45;;;;;;;5.10;3.63;;;11.50;99.90;;;;;;5050965;28;20448;-51
2021/11/08 11:46:18;;;;;;;4.93;3.93;;;11.60;99.90;;;;;;5051933;28;20822;-52
2021/11/08 11:48:46;;;;;;;6.63;3.90;;;11.10;99.90;;;;;;5051982;28;20518;-51
2021/11/08 11:51:16;;;;;;;6.27;4.23;;;11.00;99.90;;;;;;5050863;28;20471;-51
2021/11/08 11:53:48;;;;;;;4.37;3.30;;;10.50;99.90;;;;;;5051749;28;20458;-51
2021/11/08 11:56:18;;;;;;;8.00;4.47;;;10.60;99.90;;;;;;5052001;28;20505;-52
2021/11/08 11:58:46;;;;;;;7.00;3.80;;;10.80;99.90;;;;;;5051450;28;20488;-52
2021/11/08 12:01:15;;;;;;;4.47;4.07;;;10.60;99.90;;;;;;5051609;28;20459;-51
2021/11/08 12:03:44;;;;;;;6.03;4.00;;;10.60;99.90;;;;;;5051623;28;20452;-51
2021/11/08 12:06:15;;;;;;;8.60;3.90;;;10.20;99.90;;;;;;5051886;28;20451;-52
2021/11/08 12:08:43;;;;;;;7.93;4.70;;;10.10;99.90;;;;;;5051689;28;20447;-52
2021/11/08 12:11:11;;;;;;;6.33;4.20;;;9.80;99.90;;;;;;5051262;28;20494;-51
2021/11/08 12:13:41;;;;;;;5.70;4.43;;;9.70;99.90;;;;;;5051586;28;20502;-52
2021/11/08 12:16:18;;;;;;;7.17;4.73;;;9.60;99.90;;;;;;5051197;28;20448;-51
2021/11/08 12:18:46;;;;;;;8.33;5.10;;;9.30;99.90;;;;;;5051887;28;20454;-52
2021/11/08 12:21:24;;;;;;;8.53;4.67;;;9.00;99.90;;;;;;5051370;28;20953;-52
2021/11/08 12:23:52;;;;;;;7.53;5.10;;;9.00;99.90;;;;;;5051125;28;20533;-52
2021/11/08 12:26:21;;;;;;;8.23;5.10;;;9.10;99.90;;;;;;5031637;28;20448;-52
2021/11/08 12:28:48;;;;;;;6.67;4.80;;;9.20;99.90;;;;;;5031337;28;20510;-51
2021/11/08 12:31:23;;;;;;;9.30;5.17;;;9.20;99.90;;;;;;5078186;22;20578;-53
2021/11/08 12:34:02;;;;;;;9.43;5.60;;;9.20;99.90;;;;;;5071609;28;20512;-55
2021/11/08 12:36:30;;;;;;;8.53;5.30;;;9.10;99.90;;;;;;5071821;28;20454;-55
2021/11/08 12:39:00;;;;;;;6.23;4.90;;;9.10;99.90;;;;;;5071431;28;20557;-55
2021/11/08 12:41:34;;;;;;;11.63;5.80;;;9.30;99.90;;;;;;5070940;28;20467;-56
2021/11/08 12:44:06;;;;;;;6.07;4.97;;;9.60;99.90;;;;;;5071605;28;20434;-54
2021/11/08 12:46:40;;;;;;;7.80;5.00;;;9.90;99.90;;;;;;5066916;28;20454;-53
2021/11/08 12:49:11;;;;;;;11.30;4.93;;;10.10;99.90;;;;;;5071477;28;20442;-54
2021/11/08 12:51:40;;;;;;;8.03;4.60;;;10.30;99.90;;;;;;5070470;28;20496;-54
2021/11/08 12:54:12;;;;;;;6.90;5.03;;;10.50;99.90;;;;;;5067574;28;20459;-53
2021/11/08 12:56:43;;;;;;;9.33;5.90;;;10.50;99.90;;;;;;5071114;28;21003;-53
2021/11/08 12:59:19;;;;;;;9.33;5.13;;;10.60;99.90;;;;;;5071314;28;20680;-53
2021/11/08 13:01:48;;;;;;;10.57;5.13;;;10.60;99.90;;;;;;5071296;28;20462;-53
2021/11/08 13:04:18;;;;;;;12.83;5.27;;;10.50;99.90;;;;;;5070839;28;20504;-53
2021/11/08 13:06:48;;;;;;;6.53;4.77;;;10.40;99.90;;;;;;5070936;28;20969;-54
2021/11/08 13:09:19;;;;;;;7.80;4.80;;;10.60;99.90;;;;;;5070902;28;20500;-54
2021/11/08 13:11:47;;;;;;;8.33;5.00;;;10.80;99.90;;;;;;5071110;28;20486;-54
2021/11/08 13:14:28;;;;;;;14.13;5.33;;;10.60;99.90;;;;;;5071242;28;20528;-54
2021/11/08 13:17:09;;;;;;;6.63;4.83;;;10.50;99.90;;;;;;5071087;28;20454;-54
2021/11/08 13:19:43;;;;;;;10.03;5.23;;;10.20;99.90;;;;;;5071364;28;20534;-53
2021/11/08 13:22:22;;;;;;;9.13;5.80;;;10.10;99.90;;;;;;5070117;28;20463;-53
2021/11/08 13:25:08;;;;;;;10.10;5.90;;;9.90;99.90;;;;;;5071229;28;20443;-54
2021/11/08 13:27:36;;;;;;;7.80;5.10;;;9.90;99.90;;;;;;5070688;28;20461;-54
2021/11/08 13:30:07;;;;;;;12.50;4.80;;;10.10;99.90;;;;;;5074403;28;20446;-54
2021/11/08 13:32:36;;;;;;;8.77;5.80;;;9.90;99.90;;;;;;5074310;28;20478;-54
2021/11/08 13:35:24;;;;;;;8.87;5.40;;;9.70;99.90;;;;;;5074164;28;20595;-52
2021/11/08 13:38:02;;;;;;;14.50;5.63;;;9.70;99.90;;;;;;5074007;28;20839;-53
2021/11/08 13:40:30;;;;;;;9.77;5.50;;;9.90;99.90;;;;;;5074240;28;20898;-53
2021/11/08 13:43:07;;;;;;;11.63;5.87;;;10.00;99.90;;;;;;5074587;28;20818;-53
2021/11/08 13:45:48;;;;;;;11.30;5.63;;;9.90;99.90;;;;;;5074488;28;20457;-53
2021/11/08 13:48:30;;;;;;;8.37;5.40;;;9.90;99.90;;;;;;5073954;28;20809;-53
2021/11/08 13:51:00;;;;;;;8.83;5.53;;;9.90;99.90;;;;;;5073604;28;20474;-55
2021/11/08 13:53:31;;;;;;;9.07;5.50;;;9.90;99.90;;;;;;5074296;28;20509;-55
2021/11/08 13:56:00;;;;;;;8.13;5.20;;;9.90;99.90;;;;;;5074010;28;20865;-55
2021/11/08 13:58:29;;;;;;;7.47;5.07;;;10.00;99.90;;;;;;5074047;28;20503;-56
2021/11/08 14:01:01;;;;;;;9.43;5.77;;;10.00;99.90;;;;;;5073444;28;20472;-55
2021/11/08 14:03:37;;;;;;;11.30;5.07;;;9.90;99.90;;;;;;5073431;28;21017;-55
2021/11/08 14:06:03;;;;;;;10.27;5.53;;;9.90;99.90;;;;;;5074024;28;20442;-55
2021/11/08 14:08:32;;;;;;;12.07;5.23;;;9.90;99.90;;;;;;5073926;28;20511;-55
2021/11/08 14:11:00;;;;;;;7.10;5.30;;;10.00;99.90;;;;;;5073144;28;20893;-55
2021/11/08 14:13:32;;;;;;;7.70;5.13;;;10.00;99.90;;;;;;5073603;28;20496;-55
2021/11/08 14:16:01;;;;;;;8.93;5.10;;;9.90;99.90;;;;;;5073639;28;20454;-55
2021/11/08 14:18:28;;;;;;;9.50;4.77;;;9.90;99.90;;;;;;5073651;28;20450;-53
2021/11/08 14:21:07;;;;;;;11.73;5.67;;;9.80;99.90;;;;;;5071006;28;20467;-54
2021/11/08 14:23:37;;;;;;;6.20;4.70;;;9.80;99.90;;;;;;5074078;28;20516;-54